Terminal Aerodrome Forecast
Issued by NWS Sioux Falls, SD

Home | Current Version | Previous Version | Text Only | Print | Product List | Glossary On
Versions: 1 2 3 4 5 6 7 8 9 10 11 12 13 14 15 16 17 18 19 20 21 22 23 24 25
000
FTUS43 KFSD 142330
TAFHON
TAF
KHON 142330Z 1500/1524 32012KT 6SM BR OVC010
     FM150200 34012KT 4SM BR OVC008
     FM150800 35015G23KT 2SM -FZRA BR OVC005
     FM151100 35016G26KT 3SM -FZRAPL BR OVC009
     FM151700 35022G32KT 2SM -SN BR OVC010=

USA.gov is the U.S. government's official web portal to all federal, state and local government web resources and services.